sensor_id;sensor_type;location;lat;lon;timestamp;temperature;humidity
51613;DHT22;37694;51.748;14.326;2022-10-16T00:01:09;23.80;54.30
51613;DHT22;37694;51.748;14.326;2022-10-16T00:03:37;23.80;53.40
51613;DHT22;37694;51.748;14.326;2022-10-16T00:06:03;23.90;53.50
51613;DHT22;37694;51.748;14.326;2022-10-16T00:08:29;23.80;53.60
51613;DHT22;37694;51.748;14.326;2022-10-16T00:11:25;23.80;53.70
51613;DHT22;37694;51.748;14.326;2022-10-16T00:13:56;23.90;53.70
51613;DHT22;37694;51.748;14.326;2022-10-16T00:16:22;23.80;53.70
51613;DHT22;37694;51.748;14.326;2022-10-16T00:18:47;23.80;53.70
51613;DHT22;37694;51.748;14.326;2022-10-16T00:21:16;23.80;53.70
51613;DHT22;37694;51.748;14.326;2022-10-16T00:23:42;23.80;53.70
51613;DHT22;37694;51.748;14.326;2022-10-16T00:26:11;23.80;53.70
51613;DHT22;37694;51.748;14.326;2022-10-16T00:28:37;23.80;53.70
51613;DHT22;37694;51.748;14.326;2022-10-16T00:31:05;23.80;53.70
51613;DHT22;37694;51.748;14.326;2022-10-16T00:33:31;23.80;53.70
51613;DHT22;37694;51.748;14.326;2022-10-16T00:35:59;23.80;53.80
51613;DHT22;37694;51.748;14.326;2022-10-16T00:38:24;23.80;53.70
51613;DHT22;37694;51.748;14.326;2022-10-16T00:40:50;23.80;53.70
51613;DHT22;37694;51.748;14.326;2022-10-16T00:43:36;23.80;53.80
51613;DHT22;37694;51.748;14.326;2022-10-16T00:46:07;23.80;53.90
51613;DHT22;37694;51.748;14.326;2022-10-16T00:48:34;23.70;53.70
51613;DHT22;37694;51.748;14.326;2022-10-16T00:51:00;23.70;53.70
51613;DHT22;37694;51.748;14.326;2022-10-16T00:53:25;23.70;53.80
51613;DHT22;37694;51.748;14.326;2022-10-16T00:55:52;23.70;53.70
51613;DHT22;37694;51.748;14.326;2022-10-16T00:58:18;23.70;53.80
51613;DHT22;37694;51.748;14.326;2022-10-16T01:00:43;23.70;53.80
51613;DHT22;37694;51.748;14.326;2022-10-16T01:03:27;23.70;54.10
51613;DHT22;37694;51.748;14.326;2022-10-16T01:08:36;23.70;54.00
51613;DHT22;37694;51.748;14.326;2022-10-16T01:11:17;23.70;54.00
51613;DHT22;37694;51.748;14.326;2022-10-16T01:13:51;23.70;54.00
51613;DHT22;37694;51.748;14.326;2022-10-16T01:16:37;23.70;53.90
51613;DHT22;37694;51.748;14.326;2022-10-16T01:19:16;23.70;53.80
51613;DHT22;37694;51.748;14.326;2022-10-16T01:21:46;23.70;54.00
51613;DHT22;37694;51.748;14.326;2022-10-16T01:24:29;23.70;54.00
51613;DHT22;37694;51.748;14.326;2022-10-16T01:32:31;23.70;54.20
51613;DHT22;37694;51.748;14.326;2022-10-16T01:35:05;23.70;54.10
51613;DHT22;37694;51.748;14.326;2022-10-16T01:38:10;23.70;54.10
51613;DHT22;37694;51.748;14.326;2022-10-16T01:40:39;23.70;54.30
51613;DHT22;37694;51.748;14.326;2022-10-16T01:43:13;23.70;54.10
51613;DHT22;37694;51.748;14.326;2022-10-16T01:45:40;23.70;54.10
51613;DHT22;37694;51.748;14.326;2022-10-16T01:48:07;23.70;54.10
51613;DHT22;37694;51.748;14.326;2022-10-16T01:50:38;23.70;54.00
51613;DHT22;37694;51.748;14.326;2022-10-16T01:53:06;23.70;54.10
51613;DHT22;37694;51.748;14.326;2022-10-16T01:55:36;23.70;54.00
51613;DHT22;37694;51.748;14.326;2022-10-16T01:58:03;23.70;54.00
51613;DHT22;37694;51.748;14.326;2022-10-16T02:00:30;23.70;54.10
51613;DHT22;37694;51.748;14.326;2022-10-16T02:02:57;23.70;54.10
51613;DHT22;37694;51.748;14.326;2022-10-16T02:05:39;23.70;54.10
51613;DHT22;37694;51.748;14.326;2022-10-16T02:08:05;23.70;54.10
51613;DHT22;37694;51.748;14.326;2022-10-16T02:10:31;23.70;54.40
51613;DHT22;37694;51.748;14.326;2022-10-16T02:13:02;23.70;54.20
51613;DHT22;37694;51.748;14.326;2022-10-16T02:15:29;23.70;54.30
51613;DHT22;37694;51.748;14.326;2022-10-16T02:17:54;23.60;54.30
51613;DHT22;37694;51.748;14.326;2022-10-16T02:20:25;23.60;54.20
51613;DHT22;37694;51.748;14.326;2022-10-16T02:22:54;23.60;54.40
51613;DHT22;37694;51.748;14.326;2022-10-16T02:25:29;23.60;54.30
51613;DHT22;37694;51.748;14.326;2022-10-16T02:28:09;23.60;54.30
51613;DHT22;37694;51.748;14.326;2022-10-16T02:30:44;23.60;54.30
51613;DHT22;37694;51.748;14.326;2022-10-16T02:33:12;23.60;54.20
51613;DHT22;37694;51.748;14.326;2022-10-16T02:35:40;23.60;54.20
51613;DHT22;37694;51.748;14.326;2022-10-16T02:38:08;23.60;54.20
51613;DHT22;37694;51.748;14.326;2022-10-16T02:40:34;23.60;54.20
51613;DHT22;37694;51.748;14.326;2022-10-16T02:43:03;23.60;54.20
51613;DHT22;37694;51.748;14.326;2022-10-16T02:45:29;23.70;54.30
51613;DHT22;37694;51.748;14.326;2022-10-16T02:47:55;23.60;54.20
51613;DHT22;37694;51.748;14.326;2022-10-16T02:50:21;23.60;54.30
51613;DHT22;37694;51.748;14.326;2022-10-16T02:52:47;23.60;54.20
51613;DHT22;37694;51.748;14.326;2022-10-16T02:55:13;23.60;54.10
51613;DHT22;37694;51.748;14.326;2022-10-16T02:57:38;23.60;54.20
51613;DHT22;37694;51.748;14.326;2022-10-16T03:00:09;23.60;54.20
51613;DHT22;37694;51.748;14.326;2022-10-16T03:02:36;23.60;54.20
51613;DHT22;37694;51.748;14.326;2022-10-16T03:05:02;23.60;54.20
51613;DHT22;37694;51.748;14.326;2022-10-16T03:07:27;23.60;54.20
51613;DHT22;37694;51.748;14.326;2022-10-16T03:09:53;23.60;54.20
51613;DHT22;37694;51.748;14.326;2022-10-16T03:12:20;23.60;54.20
51613;DHT22;37694;51.748;14.326;2022-10-16T03:14:45;23.60;54.20
51613;DHT22;37694;51.748;14.326;2022-10-16T03:17:11;23.60;54.30
51613;DHT22;37694;51.748;14.326;2022-10-16T03:19:38;23.60;54.30
51613;DHT22;37694;51.748;14.326;2022-10-16T03:22:03;23.60;54.30
51613;DHT22;37694;51.748;14.326;2022-10-16T03:24:29;23.60;54.30
51613;DHT22;37694;51.748;14.326;2022-10-16T03:26:54;23.60;54.20
51613;DHT22;37694;51.748;14.326;2022-10-16T03:29:20;23.60;54.30
51613;DHT22;37694;51.748;14.326;2022-10-16T03:31:46;23.60;54.30
51613;DHT22;37694;51.748;14.326;2022-10-16T03:34:13;23.60;54.30
51613;DHT22;37694;51.748;14.326;2022-10-16T03:36:39;23.60;54.30
51613;DHT22;37694;51.748;14.326;2022-10-16T03:39:04;23.60;54.30
51613;DHT22;37694;51.748;14.326;2022-10-16T03:41:30;23.60;54.40
51613;DHT22;37694;51.748;14.326;2022-10-16T03:43:55;23.60;54.40
51613;DHT22;37694;51.748;14.326;2022-10-16T03:46:21;23.60;54.60
51613;DHT22;37694;51.748;14.326;2022-10-16T03:48:47;23.60;54.70
51613;DHT22;37694;51.748;14.326;2022-10-16T03:51:13;23.60;54.80
51613;DHT22;37694;51.748;14.326;2022-10-16T03:53:39;23.60;54.90
51613;DHT22;37694;51.748;14.326;2022-10-16T03:56:04;23.60;55.00
51613;DHT22;37694;51.748;14.326;2022-10-16T03:58:30;23.60;54.80
51613;DHT22;37694;51.748;14.326;2022-10-16T04:00:56;23.60;55.00
51613;DHT22;37694;51.748;14.326;2022-10-16T04:03:21;23.60;55.00
51613;DHT22;37694;51.748;14.326;2022-10-16T04:05:48;23.60;55.00
51613;DHT22;37694;51.748;14.326;2022-10-16T04:08:14;23.60;55.10
51613;DHT22;37694;51.748;14.326;2022-10-16T04:10:39;23.60;55.00
51613;DHT22;37694;51.748;14.326;2022-10-16T04:13:05;23.60;55.00
51613;DHT22;37694;51.748;14.326;2022-10-16T04:15:31;23.60;54.90
51613;DHT22;37694;51.748;14.326;2022-10-16T04:17:56;23.60;55.00
51613;DHT22;37694;51.748;14.326;2022-10-16T04:20:22;23.60;54.90
51613;DHT22;37694;51.748;14.326;2022-10-16T04:22:47;23.70;54.90
51613;DHT22;37694;51.748;14.326;2022-10-16T04:25:13;23.60;54.80
51613;DHT22;37694;51.748;14.326;2022-10-16T04:27:39;23.60;54.80
51613;DHT22;37694;51.748;14.326;2022-10-16T04:30:05;23.70;55.00
51613;DHT22;37694;51.748;14.326;2022-10-16T04:32:30;23.60;54.90
51613;DHT22;37694;51.748;14.326;2022-10-16T04:34:56;23.60;55.10
51613;DHT22;37694;51.748;14.326;2022-10-16T04:37:25;23.70;55.00
51613;DHT22;37694;51.748;14.326;2022-10-16T04:39:52;23.70;55.00
51613;DHT22;37694;51.748;14.326;2022-10-16T04:42:17;23.70;55.00
51613;DHT22;37694;51.748;14.326;2022-10-16T04:44:43;23.70;55.00
51613;DHT22;37694;51.748;14.326;2022-10-16T04:47:09;23.70;55.00
51613;DHT22;37694;51.748;14.326;2022-10-16T04:49:34;23.70;55.80
51613;DHT22;37694;51.748;14.326;2022-10-16T04:52:00;23.70;55.00
51613;DHT22;37694;51.748;14.326;2022-10-16T04:54:25;23.70;55.00
51613;DHT22;37694;51.748;14.326;2022-10-16T04:56:51;23.70;55.00
51613;DHT22;37694;51.748;14.326;2022-10-16T04:59:18;23.60;55.10
51613;DHT22;37694;51.748;14.326;2022-10-16T05:01:44;23.70;55.10
51613;DHT22;37694;51.748;14.326;2022-10-16T05:04:10;23.70;55.10
51613;DHT22;37694;51.748;14.326;2022-10-16T05:06:36;23.70;55.10
51613;DHT22;37694;51.748;14.326;2022-10-16T05:09:04;23.70;55.10
51613;DHT22;37694;51.748;14.326;2022-10-16T05:11:30;23.70;55.10
51613;DHT22;37694;51.748;14.326;2022-10-16T05:13:56;23.70;55.10
51613;DHT22;37694;51.748;14.326;2022-10-16T05:16:21;23.70;55.10
51613;DHT22;37694;51.748;14.326;2022-10-16T05:18:47;23.60;55.10
51613;DHT22;37694;51.748;14.326;2022-10-16T05:21:12;23.70;55.20
51613;DHT22;37694;51.748;14.326;2022-10-16T05:23:38;23.60;55.20
51613;DHT22;37694;51.748;14.326;2022-10-16T05:26:03;23.60;55.10
51613;DHT22;37694;51.748;14.326;2022-10-16T05:28:30;23.60;55.10
51613;DHT22;37694;51.748;14.326;2022-10-16T05:30:56;23.60;55.10
51613;DHT22;37694;51.748;14.326;2022-10-16T05:33:24;23.60;55.20
51613;DHT22;37694;51.748;14.326;2022-10-16T05:35:50;23.60;55.30
51613;DHT22;37694;51.748;14.326;2022-10-16T05:38:17;23.60;55.10
51613;DHT22;37694;51.748;14.326;2022-10-16T05:40:43;23.60;55.30
51613;DHT22;37694;51.748;14.326;2022-10-16T05:43:09;23.60;55.00
51613;DHT22;37694;51.748;14.326;2022-10-16T05:45:35;23.60;55.10
51613;DHT22;37694;51.748;14.326;2022-10-16T05:48:00;23.60;55.10
51613;DHT22;37694;51.748;14.326;2022-10-16T05:50:26;23.60;55.20
51613;DHT22;37694;51.748;14.326;2022-10-16T05:52:52;23.60;55.10
51613;DHT22;37694;51.748;14.326;2022-10-16T05:55:18;23.60;55.10
51613;DHT22;37694;51.748;14.326;2022-10-16T05:57:43;23.60;55.30
51613;DHT22;37694;51.748;14.326;2022-10-16T06:00:09;23.60;55.20
51613;DHT22;37694;51.748;14.326;2022-10-16T06:02:35;23.60;55.30
51613;DHT22;37694;51.748;14.326;2022-10-16T06:05:01;23.60;55.30
51613;DHT22;37694;51.748;14.326;2022-10-16T06:07:26;23.60;55.20
51613;DHT22;37694;51.748;14.326;2022-10-16T06:09:52;23.60;55.30
51613;DHT22;37694;51.748;14.326;2022-10-16T06:12:18;23.70;55.30
51613;DHT22;37694;51.748;14.326;2022-10-16T06:14:45;23.70;55.20
51613;DHT22;37694;51.748;14.326;2022-10-16T06:17:12;23.70;55.50
51613;DHT22;37694;51.748;14.326;2022-10-16T06:19:38;23.70;55.40
51613;DHT22;37694;51.748;14.326;2022-10-16T06:22:04;23.70;55.50
51613;DHT22;37694;51.748;14.326;2022-10-16T06:24:29;23.70;55.50
51613;DHT22;37694;51.748;14.326;2022-10-16T06:26:55;23.70;55.50
51613;DHT22;37694;51.748;14.326;2022-10-16T06:29:20;23.70;55.90
51613;DHT22;37694;51.748;14.326;2022-10-16T06:31:46;23.70;56.10
51613;DHT22;37694;51.748;14.326;2022-10-16T06:34:12;23.70;55.90
51613;DHT22;37694;51.748;14.326;2022-10-16T06:36:38;23.80;55.80
51613;DHT22;37694;51.748;14.326;2022-10-16T06:39:05;23.80;55.60
51613;DHT22;37694;51.748;14.326;2022-10-16T06:41:33;23.80;55.80
51613;DHT22;37694;51.748;14.326;2022-10-16T06:43:59;23.80;55.70
51613;DHT22;37694;51.748;14.326;2022-10-16T06:46:26;23.80;55.60
51613;DHT22;37694;51.748;14.326;2022-10-16T06:48:53;23.80;55.60
51613;DHT22;37694;51.748;14.326;2022-10-16T06:51:23;23.90;55.50
51613;DHT22;37694;51.748;14.326;2022-10-16T06:53:54;23.90;55.60
51613;DHT22;37694;51.748;14.326;2022-10-16T06:56:27;23.90;55.50
51613;DHT22;37694;51.748;14.326;2022-10-16T06:58:54;23.90;55.50
51613;DHT22;37694;51.748;14.326;2022-10-16T07:01:22;23.90;55.60
51613;DHT22;37694;51.748;14.326;2022-10-16T07:03:48;23.90;55.60
51613;DHT22;37694;51.748;14.326;2022-10-16T07:06:19;23.90;55.60
51613;DHT22;37694;51.748;14.326;2022-10-16T07:08:46;23.90;55.60
51613;DHT22;37694;51.748;14.326;2022-10-16T07:11:14;23.90;55.70
51613;DHT22;37694;51.748;14.326;2022-10-16T07:13:41;24.00;55.80
51613;DHT22;37694;51.748;14.326;2022-10-16T07:16:08;24.00;55.80
51613;DHT22;37694;51.748;14.326;2022-10-16T07:18:34;24.00;55.90
51613;DHT22;37694;51.748;14.326;2022-10-16T07:21:11;24.00;55.60
51613;DHT22;37694;51.748;14.326;2022-10-16T07:23:37;24.10;55.90
51613;DHT22;37694;51.748;14.326;2022-10-16T07:26:03;24.00;55.90
51613;DHT22;37694;51.748;14.326;2022-10-16T07:28:29;24.10;55.70
51613;DHT22;37694;51.748;14.326;2022-10-16T07:30:55;24.10;55.70
51613;DHT22;37694;51.748;14.326;2022-10-16T07:33:21;24.10;55.60
51613;DHT22;37694;51.748;14.326;2022-10-16T07:35:51;24.10;55.50
51613;DHT22;37694;51.748;14.326;2022-10-16T07:38:17;24.10;55.70
51613;DHT22;37694;51.748;14.326;2022-10-16T07:40:43;24.10;55.70
51613;DHT22;37694;51.748;14.326;2022-10-16T07:43:08;24.10;55.60
51613;DHT22;37694;51.748;14.326;2022-10-16T07:45:34;24.10;56.80
51613;DHT22;37694;51.748;14.326;2022-10-16T07:47:59;24.20;55.80
51613;DHT22;37694;51.748;14.326;2022-10-16T07:50:25;24.20;55.80
51613;DHT22;37694;51.748;14.326;2022-10-16T07:52:50;24.20;56.00
51613;DHT22;37694;51.748;14.326;2022-10-16T07:55:17;24.20;56.10
51613;DHT22;37694;51.748;14.326;2022-10-16T07:57:42;24.20;56.20
51613;DHT22;37694;51.748;14.326;2022-10-16T08:00:08;24.30;56.10
51613;DHT22;37694;51.748;14.326;2022-10-16T08:02:42;24.30;56.00
51613;DHT22;37694;51.748;14.326;2022-10-16T08:05:07;24.30;56.10
51613;DHT22;37694;51.748;14.326;2022-10-16T08:07:33;24.30;55.90
51613;DHT22;37694;51.748;14.326;2022-10-16T08:09:59;24.30;56.00
51613;DHT22;37694;51.748;14.326;2022-10-16T08:12:25;24.30;56.00
51613;DHT22;37694;51.748;14.326;2022-10-16T08:14:51;24.30;55.70
51613;DHT22;37694;51.748;14.326;2022-10-16T08:17:17;24.30;55.70
51613;DHT22;37694;51.748;14.326;2022-10-16T08:19:46;24.30;55.80
51613;DHT22;37694;51.748;14.326;2022-10-16T08:22:13;24.40;55.80
51613;DHT22;37694;51.748;14.326;2022-10-16T08:24:38;24.40;55.70
51613;DHT22;37694;51.748;14.326;2022-10-16T08:27:04;24.40;55.70
51613;DHT22;37694;51.748;14.326;2022-10-16T08:29:30;24.40;55.50
51613;DHT22;37694;51.748;14.326;2022-10-16T08:31:55;24.40;55.60
51613;DHT22;37694;51.748;14.326;2022-10-16T08:34:21;24.40;55.70
51613;DHT22;37694;51.748;14.326;2022-10-16T08:36:46;24.50;55.80
51613;DHT22;37694;51.748;14.326;2022-10-16T08:39:12;24.50;55.90
51613;DHT22;37694;51.748;14.326;2022-10-16T08:42:15;24.60;55.90
51613;DHT22;37694;51.748;14.326;2022-10-16T08:45:07;24.70;55.60
51613;DHT22;37694;51.748;14.326;2022-10-16T08:50:40;24.70;55.30
51613;DHT22;37694;51.748;14.326;2022-10-16T08:53:07;24.80;55.50
51613;DHT22;37694;51.748;14.326;2022-10-16T08:55:42;24.80;55.00
51613;DHT22;37694;51.748;14.326;2022-10-16T08:58:20;24.80;55.20
51613;DHT22;37694;51.748;14.326;2022-10-16T09:00:57;24.90;55.60
51613;DHT22;37694;51.748;14.326;2022-10-16T09:06:37;25.00;55.20
51613;DHT22;37694;51.748;14.326;2022-10-16T09:09:32;25.00;55.00
51613;DHT22;37694;51.748;14.326;2022-10-16T09:12:19;25.10;55.20
51613;DHT22;37694;51.748;14.326;2022-10-16T09:17:27;25.10;55.20
51613;DHT22;37694;51.748;14.326;2022-10-16T09:23:14;25.10;55.40
51613;DHT22;37694;51.748;14.326;2022-10-16T09:25:42;25.10;55.00
51613;DHT22;37694;51.748;14.326;2022-10-16T09:28:08;25.10;55.20
51613;DHT22;37694;51.748;14.326;2022-10-16T09:30:35;25.10;54.90
51613;DHT22;37694;51.748;14.326;2022-10-16T09:33:01;25.10;55.00
51613;DHT22;37694;51.748;14.326;2022-10-16T09:35:40;25.10;54.90
51613;DHT22;37694;51.748;14.326;2022-10-16T09:38:07;25.20;55.50
51613;DHT22;37694;51.748;14.326;2022-10-16T09:40:38;25.10;55.10
51613;DHT22;37694;51.748;14.326;2022-10-16T09:43:20;25.10;56.00
51613;DHT22;37694;51.748;14.326;2022-10-16T09:46:03;25.10;59.80
51613;DHT22;37694;51.748;14.326;2022-10-16T09:48:39;25.10;56.70
51613;DHT22;37694;51.748;14.326;2022-10-16T09:51:26;25.10;56.40
51613;DHT22;37694;51.748;14.326;2022-10-16T09:54:17;25.10;55.70
51613;DHT22;37694;51.748;14.326;2022-10-16T09:56:43;25.10;55.90
51613;DHT22;37694;51.748;14.326;2022-10-16T09:59:13;25.20;56.40
51613;DHT22;37694;51.748;14.326;2022-10-16T10:01:50;25.20;56.00
51613;DHT22;37694;51.748;14.326;2022-10-16T10:04:20;25.30;55.80
51613;DHT22;37694;51.748;14.326;2022-10-16T10:06:54;25.40;55.80
51613;DHT22;37694;51.748;14.326;2022-10-16T10:09:27;25.40;55.90
51613;DHT22;37694;51.748;14.326;2022-10-16T10:11:55;25.40;55.80
51613;DHT22;37694;51.748;14.326;2022-10-16T10:16:50;25.50;54.90
51613;DHT22;37694;51.748;14.326;2022-10-16T10:19:23;25.50;54.90
51613;DHT22;37694;51.748;14.326;2022-10-16T10:21:50;25.50;55.00
51613;DHT22;37694;51.748;14.326;2022-10-16T10:24:18;25.40;55.00
51613;DHT22;37694;51.748;14.326;2022-10-16T10:26:49;25.40;54.90
51613;DHT22;37694;51.748;14.326;2022-10-16T10:29:37;25.40;54.60
51613;DHT22;37694;51.748;14.326;2022-10-16T10:32:40;25.50;54.30
51613;DHT22;37694;51.748;14.326;2022-10-16T10:36:11;25.50;54.40
51613;DHT22;37694;51.748;14.326;2022-10-16T10:38:26;25.60;54.60
51613;DHT22;37694;51.748;14.326;2022-10-16T10:44:05;25.70;54.40
51613;DHT22;37694;51.748;14.326;2022-10-16T10:46:44;25.80;54.30
51613;DHT22;37694;51.748;14.326;2022-10-16T10:52:37;25.80;54.10
51613;DHT22;37694;51.748;14.326;2022-10-16T10:58:15;25.70;54.00
51613;DHT22;37694;51.748;14.326;2022-10-16T11:06:46;25.80;54.10
51613;DHT22;37694;51.748;14.326;2022-10-16T11:09:31;25.80;54.10
51613;DHT22;37694;51.748;14.326;2022-10-16T11:14:52;25.70;54.00
51613;DHT22;37694;51.748;14.326;2022-10-16T11:17:39;25.70;53.80
51613;DHT22;37694;51.748;14.326;2022-10-16T11:20:26;25.70;53.90
51613;DHT22;37694;51.748;14.326;2022-10-16T11:22:58;25.70;53.70
51613;DHT22;37694;51.748;14.326;2022-10-16T11:25:30;25.60;53.70
51613;DHT22;37694;51.748;14.326;2022-10-16T11:28:27;25.70;53.90
51613;DHT22;37694;51.748;14.326;2022-10-16T11:34:01;25.60;53.90
51613;DHT22;37694;51.748;14.326;2022-10-16T11:37:02;25.60;53.90
51613;DHT22;37694;51.748;14.326;2022-10-16T11:39:28;25.60;53.70
51613;DHT22;37694;51.748;14.326;2022-10-16T11:42:05;25.60;53.90
51613;DHT22;37694;51.748;14.326;2022-10-16T11:45:11;25.60;53.80
51613;DHT22;37694;51.748;14.326;2022-10-16T11:48:04;25.60;53.70
51613;DHT22;37694;51.748;14.326;2022-10-16T11:50:39;25.60;53.70
51613;DHT22;37694;51.748;14.326;2022-10-16T11:55:48;25.60;53.70
51613;DHT22;37694;51.748;14.326;2022-10-16T12:03:29;25.50;53.70
51613;DHT22;37694;51.748;14.326;2022-10-16T12:08:49;25.50;53.50
51613;DHT22;37694;51.748;14.326;2022-10-16T12:14:05;25.60;54.40
51613;DHT22;37694;51.748;14.326;2022-10-16T12:16:30;25.50;53.50
51613;DHT22;37694;51.748;14.326;2022-10-16T12:19:16;25.50;53.50
51613;DHT22;37694;51.748;14.326;2022-10-16T12:21:43;25.60;53.50
51613;DHT22;37694;51.748;14.326;2022-10-16T12:26:53;25.60;53.40
51613;DHT22;37694;51.748;14.326;2022-10-16T12:29:49;25.60;53.30
51613;DHT22;37694;51.748;14.326;2022-10-16T12:32:31;25.60;53.30
51613;DHT22;37694;51.748;14.326;2022-10-16T12:34:58;25.60;53.40
51613;DHT22;37694;51.748;14.326;2022-10-16T12:39:53;25.60;53.30
51613;DHT22;37694;51.748;14.326;2022-10-16T12:44:55;25.60;53.30
51613;DHT22;37694;51.748;14.326;2022-10-16T12:49:56;25.60;53.20
51613;DHT22;37694;51.748;14.326;2022-10-16T12:52:47;25.60;53.40
51613;DHT22;37694;51.748;14.326;2022-10-16T12:55:18;25.60;53.50
51613;DHT22;37694;51.748;14.326;2022-10-16T13:00:56;25.60;54.30
51613;DHT22;37694;51.748;14.326;2022-10-16T13:03:47;25.60;53.70
51613;DHT22;37694;51.748;14.326;2022-10-16T13:17:45;25.50;53.90
51613;DHT22;37694;51.748;14.326;2022-10-16T13:25:50;25.40;55.00
51613;DHT22;37694;51.748;14.326;2022-10-16T13:28:22;25.50;54.40
51613;DHT22;37694;51.748;14.326;2022-10-16T13:30:54;25.40;54.10
51613;DHT22;37694;51.748;14.326;2022-10-16T13:35:54;25.40;53.60
51613;DHT22;37694;51.748;14.326;2022-10-16T13:38:23;25.40;53.80
51613;DHT22;37694;51.748;14.326;2022-10-16T13:40:55;25.30;53.50
51613;DHT22;37694;51.748;14.326;2022-10-16T13:43:28;25.30;54.00
51613;DHT22;37694;51.748;14.326;2022-10-16T13:46:01;25.40;54.30
51613;DHT22;37694;51.748;14.326;2022-10-16T13:48:27;25.30;53.90
51613;DHT22;37694;51.748;14.326;2022-10-16T13:53:34;25.40;54.00
51613;DHT22;37694;51.748;14.326;2022-10-16T13:56:05;25.40;54.20
51613;DHT22;37694;51.748;14.326;2022-10-16T13:58:32;25.40;55.10
51613;DHT22;37694;51.748;14.326;2022-10-16T14:01:03;25.50;54.20
51613;DHT22;37694;51.748;14.326;2022-10-16T14:03:30;25.50;54.10
51613;DHT22;37694;51.748;14.326;2022-10-16T14:06:02;25.60;54.10
51613;DHT22;37694;51.748;14.326;2022-10-16T14:08:30;25.60;54.10
51613;DHT22;37694;51.748;14.326;2022-10-16T14:10:58;25.60;54.00
51613;DHT22;37694;51.748;14.326;2022-10-16T14:13:44;25.60;53.60
51613;DHT22;37694;51.748;14.326;2022-10-16T14:16:37;25.70;53.70
51613;DHT22;37694;51.748;14.326;2022-10-16T14:19:04;25.60;53.90
51613;DHT22;37694;51.748;14.326;2022-10-16T14:21:32;25.70;54.00
51613;DHT22;37694;51.748;14.326;2022-10-16T14:23:58;25.70;53.70
51613;DHT22;37694;51.748;14.326;2022-10-16T14:26:26;25.70;53.60
51613;DHT22;37694;51.748;14.326;2022-10-16T14:29:16;25.70;53.70
51613;DHT22;37694;51.748;14.326;2022-10-16T14:31:43;25.70;53.70
51613;DHT22;37694;51.748;14.326;2022-10-16T14:34:36;25.70;53.40
51613;DHT22;37694;51.748;14.326;2022-10-16T14:37:24;25.70;53.40
51613;DHT22;37694;51.748;14.326;2022-10-16T14:39:51;25.70;53.40
51613;DHT22;37694;51.748;14.326;2022-10-16T14:42:19;25.70;53.80
51613;DHT22;37694;51.748;14.326;2022-10-16T14:44:46;25.70;53.70
51613;DHT22;37694;51.748;14.326;2022-10-16T14:47:14;25.70;53.90
51613;DHT22;37694;51.748;14.326;2022-10-16T14:49:41;25.70;54.00
51613;DHT22;37694;51.748;14.326;2022-10-16T14:52:12;25.70;53.90
51613;DHT22;37694;51.748;14.326;2022-10-16T14:54:38;25.70;54.00
51613;DHT22;37694;51.748;14.326;2022-10-16T14:57:04;25.70;54.20
51613;DHT22;37694;51.748;14.326;2022-10-16T14:59:36;25.70;54.10
51613;DHT22;37694;51.748;14.326;2022-10-16T15:02:28;25.70;54.00
51613;DHT22;37694;51.748;14.326;2022-10-16T15:04:55;25.70;54.10
51613;DHT22;37694;51.748;14.326;2022-10-16T15:07:21;25.70;54.20
51613;DHT22;37694;51.748;14.326;2022-10-16T15:09:46;25.70;54.20
51613;DHT22;37694;51.748;14.326;2022-10-16T15:12:12;25.70;54.30
51613;DHT22;37694;51.748;14.326;2022-10-16T15:14:38;25.70;54.50
51613;DHT22;37694;51.748;14.326;2022-10-16T15:17:03;25.70;54.40
51613;DHT22;37694;51.748;14.326;2022-10-16T15:19:29;25.70;54.60
51613;DHT22;37694;51.748;14.326;2022-10-16T15:21:55;25.70;54.50
51613;DHT22;37694;51.748;14.326;2022-10-16T15:24:20;25.80;54.60
51613;DHT22;37694;51.748;14.326;2022-10-16T15:26:46;25.80;54.60
51613;DHT22;37694;51.748;14.326;2022-10-16T15:29:12;25.70;54.80
51613;DHT22;37694;51.748;14.326;2022-10-16T15:31:38;25.70;55.80
51613;DHT22;37694;51.748;14.326;2022-10-16T15:34:04;25.80;55.20
51613;DHT22;37694;51.748;14.326;2022-10-16T15:36:35;25.80;55.00
51613;DHT22;37694;51.748;14.326;2022-10-16T15:39:13;25.80;55.10
51613;DHT22;37694;51.748;14.326;2022-10-16T15:41:40;25.80;55.10
51613;DHT22;37694;51.748;14.326;2022-10-16T15:44:06;25.80;55.30
51613;DHT22;37694;51.748;14.326;2022-10-16T15:46:32;25.80;55.00
51613;DHT22;37694;51.748;14.326;2022-10-16T15:48:59;25.80;54.70
51613;DHT22;37694;51.748;14.326;2022-10-16T15:51:26;25.80;54.50
51613;DHT22;37694;51.748;14.326;2022-10-16T15:53:59;25.80;54.30
51613;DHT22;37694;51.748;14.326;2022-10-16T15:56:27;25.80;54.50
51613;DHT22;37694;51.748;14.326;2022-10-16T15:58:54;25.80;54.50
51613;DHT22;37694;51.748;14.326;2022-10-16T16:01:20;25.80;54.40
51613;DHT22;37694;51.748;14.326;2022-10-16T16:03:46;25.80;54.30
51613;DHT22;37694;51.748;14.326;2022-10-16T16:06:13;25.80;54.10
51613;DHT22;37694;51.748;14.326;2022-10-16T16:08:39;25.70;54.00
51613;DHT22;37694;51.748;14.326;2022-10-16T16:11:09;25.80;54.10
51613;DHT22;37694;51.748;14.326;2022-10-16T16:13:36;25.80;54.00
51613;DHT22;37694;51.748;14.326;2022-10-16T16:16:06;25.70;54.00
51613;DHT22;37694;51.748;14.326;2022-10-16T16:18:33;25.70;53.80
51613;DHT22;37694;51.748;14.326;2022-10-16T16:20:58;25.70;53.80
51613;DHT22;37694;51.748;14.326;2022-10-16T16:23:24;25.70;53.90
51613;DHT22;37694;51.748;14.326;2022-10-16T16:28:35;25.70;53.90
51613;DHT22;37694;51.748;14.326;2022-10-16T16:31:01;25.70;53.80
51613;DHT22;37694;51.748;14.326;2022-10-16T16:33:26;25.70;53.90
51613;DHT22;37694;51.748;14.326;2022-10-16T16:35:57;25.70;53.90
51613;DHT22;37694;51.748;14.326;2022-10-16T16:38:23;25.70;53.80
51613;DHT22;37694;51.748;14.326;2022-10-16T16:40:48;25.70;54.00
51613;DHT22;37694;51.748;14.326;2022-10-16T16:43:14;25.70;54.20
51613;DHT22;37694;51.748;14.326;2022-10-16T16:45:39;25.70;53.70
51613;DHT22;37694;51.748;14.326;2022-10-16T16:48:05;25.70;54.20
51613;DHT22;37694;51.748;14.326;2022-10-16T16:50:38;25.70;54.30
51613;DHT22;37694;51.748;14.326;2022-10-16T16:53:03;25.70;54.20
51613;DHT22;37694;51.748;14.326;2022-10-16T16:55:29;25.70;53.80
51613;DHT22;37694;51.748;14.326;2022-10-16T16:57:55;25.70;53.90
51613;DHT22;37694;51.748;14.326;2022-10-16T17:00:22;25.70;54.00
51613;DHT22;37694;51.748;14.326;2022-10-16T17:02:50;25.70;53.50
51613;DHT22;37694;51.748;14.326;2022-10-16T17:05:17;25.70;53.40
51613;DHT22;37694;51.748;14.326;2022-10-16T17:07:43;25.70;53.50